Terminal Aerodrome Forecast
Issued by NWS Wilmington, NC

Home | Current Version | Previous Version | Text Only | Print | Product List | Glossary On
Versions: 1 2 3 4 5 6 7 8 9 10 11 12 13 14 15
069
FTUS42 KILM 072320
TAFMYR
TAF
KMYR 072320Z 0800/0824 34018G27KT P6SM VCSH BKN070
     FM080300 34015G23KT P6SM BKN100
     FM080600 30010KT P6SM SCT050
     FM081100 26005KT P6SM FEW250
     FM082000 22012G19KT P6SM BKN250
     FM082300 23013G20KT 6SM -SHRA BKN050
      AMD LTD TO CLD VIS AND WIND TIL 081100=

USA.gov is the U.S. government's official web portal to all federal, state and local government web resources and services.